Mississagi — CFG8050 — position and weather

sailwx.info

Track history (hours):
 
Tides and Currents Weather Stations Pressure Air Temp Water Temp Dewpoint Dewpoint Depression Visibility Wind Speed Wind Dir Waves Ship Positions

Mississagi

Last reported at 2015-May-02 09:31 UTC. Time now 2015-May-04 18:06 UTC.
Position N 46°32' W 084°39'.

Length 189 m; draft 7.2 m.

Type: Cargo ship. MMSI: 316004940.

Date/timePositionNaut miles runAvg speedWind from/ knotsBaromVisibWave heightAir tempDewpointWater temp
2015-May-02 09:31N 46°32' W 084°39'19 4.5
2015-May-02 05:19N 46°24' W 084°14'14 7.7
2015-May-02 03:33N 46°11' W 084°06'13 9.6
2015-May-02 02:13N 46°02' W 083°54'810.7
2015-May-02 01:30N 45°54' W 083°51'  
2015-Apr-29 15:20N 45°40' W 084°05'911.0
2015-Apr-29 14:32N 45°42' W 084°17'1111.2
2015-Apr-29 13:33N 45°44' W 084°32'1211.6
2015-Apr-29 12:33N 45°49' W 084°47'1211.8
2015-Apr-29 11:33N 45°51' W 085°04'1211.8
2015-Apr-29 10:33N 45°52' W 085°21'1211.8
2015-Apr-29 09:33N 45°54' W 085°38'1110.9
2015-Apr-29 08:33N 45°57' W 085°53'1 1.3
2015-Apr-29 07:33N 45°58' W 085°52'0 0.0
2015-Apr-29 06:33N 45°58' W 085°52'0 0.1
2015-Apr-29 05:33N 45°58' W 085°52'0 0.0
2015-Apr-29 04:33N 45°58' W 085°52'0 0.0
2015-Apr-29 03:33N 45°58' W 085°52'0 0.0
2015-Apr-29 02:33N 45°58' W 085°52'0 0.0
2015-Apr-29 01:33N 45°58' W 085°52'0 0.0
2015-Apr-29 00:33N 45°58' W 085°52'3 2.6
2015-Apr-28 23:33N 45°55' W 085°53'1312.7
2015-Apr-28 22:33N 45°44' W 085°59'1312.7
2015-Apr-28 21:33N 45°32' W 086°05'1312.7
2015-Apr-28 20:33N 45°19' W 086°10'1512.8
2015-Apr-28 19:24N 45°05' W 086°15'6 0.1
2015-Apr-26 21:05N 45°01' W 086°22'612.0
2015-Apr-26 20:32N 45°07' W 086°19'1212.0
2015-Apr-26 19:33N 45°18' W 086°15'1212.0
2015-Apr-26 18:33N 45°30' W 086°11'1211.8
2015-Apr-26 17:33N 45°41' W 086°05'1211.7
2015-Apr-26 16:33N 45°47' W 085°50'1211.6
2015-Apr-26 15:33N 45°53' W 085°36'1111.3
2015-Apr-26 14:33N 45°53' W 085°20'1211.6
2015-Apr-26 13:33N 45°51' W 085°03'1111.5
2015-Apr-26 12:33N 45°49' W 084°47'1111.0
2015-Apr-26 11:33N 45°51' W 084°31'1211.8
2015-Apr-26 10:33N 45°53' W 084°15'1211.6
2015-Apr-26 09:33N 45°55' W 083°58'1010.0
2015-Apr-26 08:33N 46°04' W 083°50'1 0.0
2015-Apr-25 12:33N 46°03' W 083°50'0 0.0
2015-Apr-25 11:33N 46°03' W 083°50'0 0.0
2015-Apr-25 10:08N 46°03' W 083°50'0 0.0
2015-Apr-25 07:28N 46°03' W 083°50'0 0.0
2015-Apr-25 06:33N 46°03' W 083°50'0 0.0
2015-Apr-25 05:33N 46°03' W 083°50'0 0.0
2015-Apr-25 03:19N 46°03' W 083°50'  
Track history (hours):
 
Tides and Currents Weather Stations Pressure Air Temp Water Temp Dewpoint Dewpoint Depression Visibility Wind Speed Wind Dir Waves Ship Positions

Mississagi

Last reported at 2015-May-02 09:31 UTC. Time now 2015-May-04 18:06 UTC.
Position N 46°32' W 084°39'.

Length 189 m; draft 7.2 m.

Type: Cargo ship. MMSI: 316004940.

Date/timePositionNaut miles runAvg speedWind from/ knotsBaromVisibWave heightAir tempDewpointWater temp
2015-May-02 09:31N 46°32' W 084°39'19 4.5
2015-May-02 05:19N 46°24' W 084°14'14 7.7
2015-May-02 03:33N 46°11' W 084°06'13 9.6
2015-May-02 02:13N 46°02' W 083°54'810.7
2015-May-02 01:30N 45°54' W 083°51'  
2015-Apr-29 15:20N 45°40' W 084°05'911.0
2015-Apr-29 14:32N 45°42' W 084°17'1111.2
2015-Apr-29 13:33N 45°44' W 084°32'1211.6
2015-Apr-29 12:33N 45°49' W 084°47'1211.8
2015-Apr-29 11:33N 45°51' W 085°04'1211.8
2015-Apr-29 10:33N 45°52' W 085°21'1211.8
2015-Apr-29 09:33N 45°54' W 085°38'1110.9
2015-Apr-29 08:33N 45°57' W 085°53'1 1.3
2015-Apr-29 07:33N 45°58' W 085°52'0 0.0
2015-Apr-29 06:33N 45°58' W 085°52'0 0.1
2015-Apr-29 05:33N 45°58' W 085°52'0 0.0
2015-Apr-29 04:33N 45°58' W 085°52'0 0.0
2015-Apr-29 03:33N 45°58' W 085°52'0 0.0
2015-Apr-29 02:33N 45°58' W 085°52'0 0.0
2015-Apr-29 01:33N 45°58' W 085°52'0 0.0
2015-Apr-29 00:33N 45°58' W 085°52'3 2.6
2015-Apr-28 23:33N 45°55' W 085°53'1312.7
2015-Apr-28 22:33N 45°44' W 085°59'1312.7
2015-Apr-28 21:33N 45°32' W 086°05'1312.7
2015-Apr-28 20:33N 45°19' W 086°10'1512.8
2015-Apr-28 19:24N 45°05' W 086°15'6 0.1
2015-Apr-26 21:05N 45°01' W 086°22'612.0
2015-Apr-26 20:32N 45°07' W 086°19'1212.0
2015-Apr-26 19:33N 45°18' W 086°15'1212.0
2015-Apr-26 18:33N 45°30' W 086°11'1211.8
2015-Apr-26 17:33N 45°41' W 086°05'1211.7
2015-Apr-26 16:33N 45°47' W 085°50'1211.6
2015-Apr-26 15:33N 45°53' W 085°36'1111.3
2015-Apr-26 14:33N 45°53' W 085°20'1211.6
2015-Apr-26 13:33N 45°51' W 085°03'1111.5
2015-Apr-26 12:33N 45°49' W 084°47'1111.0
2015-Apr-26 11:33N 45°51' W 084°31'1211.8
2015-Apr-26 10:33N 45°53' W 084°15'1211.6
2015-Apr-26 09:33N 45°55' W 083°58'1010.0
2015-Apr-26 08:33N 46°04' W 083°50'1 0.0
2015-Apr-25 12:33N 46°03' W 083°50'0 0.0
2015-Apr-25 11:33N 46°03' W 083°50'0 0.0
2015-Apr-25 10:08N 46°03' W 083°50'0 0.0
2015-Apr-25 07:28N 46°03' W 083°50'0 0.0
2015-Apr-25 06:33N 46°03' W 083°50'0 0.0
2015-Apr-25 05:33N 46°03' W 083°50'0 0.0
2015-Apr-25 03:19N 46°03' W 083°50'  

Dump ship's entire track history